Terminal Aerodrome Forecast
Issued by NWS Twin Cities, MN

Home | Current Version | Previous Version | Text Only | Print | Product List | Glossary Off
Versions: 1 2 3 4 5 6 7 8 9 10 11 12 13 14 15 16 17 18 19 20 21 22 23 24 25 26 27 28 29 30

000
FTUS43 KMPX 152051 AAB
TAFMSP
TAF AMD
KMSP 152051Z 1521/1624 30016G24KT P6SM OVC025
      TEMPO 1521/1601 SCT025 BKN035
     FM160300 31011KT P6SM OVC020
     FM161200 05005KT P6SM SCT030
     FM161400 12005KT P6SM FEW200
     FM162100 12010G16KT P6SM BKN200=

USA.gov is the U.S. government's official web portal to all federal, state and local government web resources and services.